createdAt,value
2022-07-26T00:16:45.711Z,140
2022-07-26T00:36:45.154Z,139
2022-07-26T00:56:45.656Z,137
2022-07-26T01:16:45.655Z,139
2022-07-26T01:36:45.633Z,139
2022-07-26T01:56:45.694Z,142
2022-07-26T02:16:45.430Z,142
2022-07-26T02:56:45.620Z,147
2022-07-26T03:16:45.606Z,144
2022-07-26T03:36:45.448Z,144
2022-07-26T03:56:45.591Z,145
2022-07-26T04:16:45.652Z,149
2022-07-26T04:36:45.591Z,150
2022-07-26T04:56:45.575Z,151
2022-07-26T05:36:45.560Z,151
2022-07-26T05:56:45.562Z,152
2022-07-26T06:16:45.613Z,151
2022-07-26T06:36:45.340Z,151
2022-07-26T06:56:52.561Z,150
2022-07-26T07:16:45.630Z,150
2022-07-26T07:36:45.548Z,150
2022-07-26T07:56:45.514Z,149
2022-07-26T08:16:45.653Z,151
2022-07-26T08:37:07.194Z,150
2022-07-26T08:56:45.499Z,149
2022-07-26T09:16:45.488Z,144
2022-07-26T09:36:45.474Z,141
2022-07-26T09:56:44.969Z,139
2022-07-26T10:16:44.954Z,146
2022-07-26T10:36:45.488Z,148
2022-07-26T10:56:44.977Z,140
2022-07-26T11:16:45.420Z,131
2022-07-26T11:36:45.440Z,139
2022-07-26T11:56:45.418Z,141
2022-07-26T12:16:45.428Z,141
2022-07-26T12:36:45.197Z,138
2022-07-26T12:56:46.347Z,137
2022-07-26T13:36:45.374Z,131
2022-07-26T13:56:45.373Z,134
2022-07-26T14:16:47.014Z,125
2022-07-26T14:36:45.329Z,117
2022-07-26T14:56:45.328Z,109
2022-07-26T15:36:45.301Z,128
2022-07-26T16:16:44.887Z,129
2022-07-26T16:36:45.280Z,133
2022-07-26T16:56:45.278Z,133
2022-07-26T17:16:45.293Z,135
2022-07-26T17:36:46.573Z,136
2022-07-26T18:16:45.282Z,137
2022-07-26T18:36:52.218Z,138
2022-07-26T18:56:45.220Z,141
2022-07-26T19:16:52.040Z,143
2022-07-26T19:36:45.201Z,144
2022-07-26T19:56:45.188Z,143
2022-07-26T20:16:56.044Z,143
2022-07-26T20:36:45.171Z,137
2022-07-26T20:56:45.193Z,138
2022-07-26T21:16:45.189Z,139
2022-07-26T21:36:45.151Z,139
2022-07-26T21:56:45.188Z,139
2022-07-26T22:16:52.008Z,137
2022-07-26T22:36:45.568Z,139
2022-07-26T22:56:44.931Z,138
2022-07-26T23:16:52.233Z,139
2022-07-26T23:36:52.123Z,138
